createdAt,value
2018-08-12T00:00:48.439Z,11.22
2018-08-12T00:03:17.374Z,9.58
2018-08-12T00:05:46.338Z,14.83
2018-08-12T00:08:15.287Z,14.87
2018-08-12T00:10:44.362Z,17.62
2018-08-12T00:13:13.315Z,12.23
2018-08-12T00:15:42.314Z,13.60
2018-08-12T00:18:11.295Z,10.70
2018-08-12T00:20:40.230Z,12.55
2018-08-12T00:23:09.234Z,12.90
2018-08-12T00:25:38.154Z,12.53
2018-08-12T00:28:07.142Z,12.95
2018-08-12T00:30:36.091Z,14.35
2018-08-12T00:33:05.074Z,19.40
2018-08-12T00:35:34.064Z,13.62
2018-08-12T00:38:03.075Z,14.15
2018-08-12T00:40:32.026Z,15.43
2018-08-12T00:43:01.014Z,12.58
2018-08-12T00:45:29.989Z,16.25
2018-08-12T00:47:58.938Z,12.88
2018-08-12T00:50:27.906Z,15.53
2018-08-12T00:52:56.850Z,13.83
2018-08-12T00:55:25.834Z,12.70
2018-08-12T00:57:54.777Z,12.73
2018-08-12T01:00:23.979Z,14.50
2018-08-12T01:02:52.883Z,13.95
2018-08-12T01:05:21.785Z,13.00
2018-08-12T01:07:51.203Z,16.80
2018-08-12T01:10:20.686Z,14.53
2018-08-12T01:12:49.709Z,14.13
2018-08-12T01:15:20.470Z,19.10
2018-08-12T01:17:49.450Z,13.72
2018-08-12T01:20:23.254Z,12.00
2018-08-12T01:22:52.266Z,16.10
2018-08-12T01:25:21.554Z,12.50
2018-08-12T01:27:50.520Z,15.03
2018-08-12T01:30:20.719Z,17.52
2018-08-12T01:32:49.950Z,14.07
2018-08-12T01:35:19.271Z,13.65
2018-08-12T01:37:48.887Z,17.57
2018-08-12T01:40:18.669Z,14.70
2018-08-12T01:42:47.894Z,16.60
2018-08-12T01:45:17.942Z,15.58
2018-08-12T01:47:46.926Z,11.53
2018-08-12T01:50:17.217Z,10.23
2018-08-12T01:52:46.226Z,15.72
2018-08-12T01:55:15.378Z,16.40
2018-08-12T01:57:44.296Z,14.85
2018-08-12T02:00:14.666Z,15.20
2018-08-12T02:02:43.682Z,19.27
2018-08-12T02:05:12.664Z,13.95
2018-08-12T02:07:41.698Z,16.90
2018-08-12T02:10:11.041Z,12.03
2018-08-12T02:12:40.378Z,13.65
2018-08-12T02:15:10.577Z,20.12
2018-08-12T02:17:39.825Z,15.75
2018-08-12T02:20:09.542Z,14.68
2018-08-12T02:22:39.254Z,17.87
2018-08-12T02:25:08.555Z,19.60
2018-08-12T02:27:37.506Z,15.65
2018-08-12T02:30:07.109Z,17.10
2018-08-12T02:32:36.079Z,15.23
2018-08-12T02:35:05.158Z,16.57
2018-08-12T02:37:34.094Z,17.32
2018-08-12T02:40:03.052Z,16.65
2018-08-12T02:42:32.071Z,16.70
2018-08-12T02:45:01.031Z,19.12
2018-08-12T02:47:30.148Z,18.95
2018-08-12T02:49:59.063Z,18.35
2018-08-12T02:52:28.003Z,21.33
2018-08-12T02:54:56.939Z,16.40
2018-08-12T02:57:25.983Z,19.15
2018-08-12T02:59:54.938Z,18.10
2018-08-12T03:02:23.861Z,18.07
2018-08-12T03:04:52.834Z,18.20
2018-08-12T03:07:21.790Z,18.82
2018-08-12T03:09:50.682Z,20.45
2018-08-12T03:12:19.625Z,18.73
2018-08-12T03:14:48.559Z,16.73
2018-08-12T03:17:17.491Z,21.12
2018-08-12T03:19:46.450Z,15.05
2018-08-12T03:22:15.429Z,17.80
2018-08-12T03:24:44.338Z,16.27
2018-08-12T03:27:13.274Z,17.30
2018-08-12T03:29:42.236Z,20.70
2018-08-12T03:32:11.181Z,18.57
2018-08-12T03:34:40.078Z,19.12
2018-08-12T03:37:09.003Z,15.90
2018-08-12T03:39:37.943Z,21.62
2018-08-12T03:42:06.854Z,16.02
2018-08-12T03:44:35.834Z,17.10
2018-08-12T03:47:04.878Z,16.12
2018-08-12T03:49:33.826Z,20.30
2018-08-12T03:52:02.754Z,16.32
2018-08-12T03:54:31.726Z,19.60
2018-08-12T03:57:00.675Z,19.05
2018-08-12T03:59:29.579Z,18.70
2018-08-12T04:01:58.528Z,21.07
2018-08-12T04:04:27.474Z,19.73
2018-08-12T04:06:56.430Z,19.80
2018-08-12T04:09:25.615Z,21.10
2018-08-12T04:11:54.534Z,19.15
2018-08-12T04:14:23.442Z,18.92
2018-08-12T04:16:58.826Z,19.40
2018-08-12T04:19:28.527Z,21.15
2018-08-12T04:21:57.498Z,22.13
2018-08-12T04:24:26.718Z,19.32
2018-08-12T04:26:55.944Z,24.67
2018-08-12T04:29:25.285Z,21.73
2018-08-12T04:31:54.254Z,28.42
2018-08-12T04:34:23.906Z,24.83
2018-08-12T04:36:53.755Z,28.12
2018-08-12T04:39:23.284Z,24.55
2018-08-12T04:41:52.485Z,30.37
2018-08-12T04:44:21.739Z,21.48
2018-08-12T04:46:51.594Z,20.72
2018-08-12T04:49:21.266Z,30.02
2018-08-12T04:51:50.537Z,22.98
2018-08-12T04:54:20.087Z,25.20
2018-08-12T04:56:50.002Z,27.40
2018-08-12T04:59:19.365Z,22.80
2018-08-12T05:01:48.327Z,24.12
2018-08-12T05:04:17.870Z,24.45
2018-08-12T05:06:47.294Z,26.68
2018-08-12T05:09:16.842Z,24.43
2018-08-12T05:11:45.871Z,20.82
2018-08-12T05:14:15.185Z,27.22
2018-08-12T05:16:44.422Z,26.00
2018-08-12T05:19:14.320Z,26.85
2018-08-12T05:21:43.706Z,23.12
2018-08-12T05:24:12.954Z,22.70
2018-08-12T05:26:42.530Z,21.62
2018-08-12T05:29:12.012Z,21.65
